sensor_id;sensor_type;location;lat;lon;timestamp;temperature;humidity
32811;DHT22;65470;47.324;8.548;2023-02-13T00:01:22;5.50;99.90
32811;DHT22;65470;47.324;8.548;2023-02-13T00:03:48;5.50;99.90
32811;DHT22;65470;47.324;8.548;2023-02-13T00:06:13;5.60;99.90
32811;DHT22;65470;47.324;8.548;2023-02-13T00:08:39;5.60;99.90
32811;DHT22;65470;47.324;8.548;2023-02-13T00:11:04;5.70;99.90
32811;DHT22;65470;47.324;8.548;2023-02-13T00:13:31;5.70;99.90
32811;DHT22;65470;47.324;8.548;2023-02-13T00:15:58;5.80;99.90
32811;DHT22;65470;47.324;8.548;2023-02-13T00:18:25;5.90;99.90
32811;DHT22;65470;47.324;8.548;2023-02-13T00:21:07;5.90;99.90
32811;DHT22;65470;47.324;8.548;2023-02-13T00:23:34;5.90;99.90
32811;DHT22;65470;47.324;8.548;2023-02-13T00:26:03;6.00;99.90
32811;DHT22;65470;47.324;8.548;2023-02-13T00:28:30;6.00;99.90
32811;DHT22;65470;47.324;8.548;2023-02-13T00:31:07;6.00;99.90
32811;DHT22;65470;47.324;8.548;2023-02-13T00:33:33;6.00;99.90
32811;DHT22;65470;47.324;8.548;2023-02-13T00:36:20;5.90;99.90
32811;DHT22;65470;47.324;8.548;2023-02-13T00:38:46;5.80;99.90
32811;DHT22;65470;47.324;8.548;2023-02-13T00:41:13;5.90;99.90
32811;DHT22;65470;47.324;8.548;2023-02-13T00:43:39;5.90;99.90
32811;DHT22;65470;47.324;8.548;2023-02-13T00:46:05;5.90;99.90
32811;DHT22;65470;47.324;8.548;2023-02-13T00:48:32;5.90;99.90
32811;DHT22;65470;47.324;8.548;2023-02-13T00:50:58;5.90;99.90
32811;DHT22;65470;47.324;8.548;2023-02-13T00:53:25;6.00;99.90
32811;DHT22;65470;47.324;8.548;2023-02-13T00:55:51;6.00;99.90
32811;DHT22;65470;47.324;8.548;2023-02-13T00:58:18;5.90;99.90
32811;DHT22;65470;47.324;8.548;2023-02-13T01:00:44;5.90;99.90
32811;DHT22;65470;47.324;8.548;2023-02-13T01:03:12;5.90;99.90
32811;DHT22;65470;47.324;8.548;2023-02-13T01:05:38;5.90;99.90
32811;DHT22;65470;47.324;8.548;2023-02-13T01:08:04;5.90;99.90
32811;DHT22;65470;47.324;8.548;2023-02-13T01:10:30;6.00;99.90
32811;DHT22;65470;47.324;8.548;2023-02-13T01:12:56;6.00;99.90
32811;DHT22;65470;47.324;8.548;2023-02-13T01:15:21;6.10;99.90
32811;DHT22;65470;47.324;8.548;2023-02-13T01:17:47;6.10;99.90
32811;DHT22;65470;47.324;8.548;2023-02-13T01:20:13;6.10;99.90
32811;DHT22;65470;47.324;8.548;2023-02-13T01:22:39;6.10;99.90
32811;DHT22;65470;47.324;8.548;2023-02-13T01:25:06;6.00;99.90
32811;DHT22;65470;47.324;8.548;2023-02-13T01:27:31;6.00;99.90
32811;DHT22;65470;47.324;8.548;2023-02-13T01:29:58;6.00;99.90
32811;DHT22;65470;47.324;8.548;2023-02-13T01:32:24;6.00;99.90
32811;DHT22;65470;47.324;8.548;2023-02-13T01:34:49;6.10;99.90
32811;DHT22;65470;47.324;8.548;2023-02-13T01:37:15;6.10;99.90
32811;DHT22;65470;47.324;8.548;2023-02-13T01:39:41;6.10;99.90
32811;DHT22;65470;47.324;8.548;2023-02-13T01:42:15;6.10;99.90
32811;DHT22;65470;47.324;8.548;2023-02-13T01:44:58;6.20;99.90
32811;DHT22;65470;47.324;8.548;2023-02-13T01:50:20;6.20;99.90
32811;DHT22;65470;47.324;8.548;2023-02-13T01:52:54;6.20;99.90
32811;DHT22;65470;47.324;8.548;2023-02-13T01:55:22;6.20;99.90
32811;DHT22;65470;47.324;8.548;2023-02-13T01:57:56;6.20;99.90
32811;DHT22;65470;47.324;8.548;2023-02-13T02:00:23;6.20;99.90
32811;DHT22;65470;47.324;8.548;2023-02-13T02:02:54;6.20;99.90
32811;DHT22;65470;47.324;8.548;2023-02-13T02:05:23;6.30;99.90
32811;DHT22;65470;47.324;8.548;2023-02-13T02:07:49;6.20;99.90
32811;DHT22;65470;47.324;8.548;2023-02-13T02:10:17;6.30;99.90
32811;DHT22;65470;47.324;8.548;2023-02-13T02:13:00;6.20;99.90
32811;DHT22;65470;47.324;8.548;2023-02-13T02:15:29;6.10;99.90
32811;DHT22;65470;47.324;8.548;2023-02-13T02:17:54;6.10;99.90
32811;DHT22;65470;47.324;8.548;2023-02-13T02:26:34;6.10;99.90
32811;DHT22;65470;47.324;8.548;2023-02-13T02:29:27;6.20;99.90
32811;DHT22;65470;47.324;8.548;2023-02-13T02:32:23;6.20;99.90
32811;DHT22;65470;47.324;8.548;2023-02-13T02:37:57;6.20;99.90
32811;DHT22;65470;47.324;8.548;2023-02-13T02:43:59;6.20;99.90
32811;DHT22;65470;47.324;8.548;2023-02-13T02:46:26;6.20;99.90
32811;DHT22;65470;47.324;8.548;2023-02-13T02:49:05;6.20;99.90
32811;DHT22;65470;47.324;8.548;2023-02-13T02:52:06;6.20;99.90
32811;DHT22;65470;47.324;8.548;2023-02-13T02:57:27;6.20;99.90
32811;DHT22;65470;47.324;8.548;2023-02-13T03:03:56;6.10;99.90
32811;DHT22;65470;47.324;8.548;2023-02-13T03:06:50;6.10;99.90
32811;DHT22;65470;47.324;8.548;2023-02-13T03:09:30;6.10;99.90
32811;DHT22;65470;47.324;8.548;2023-02-13T03:12:20;6.10;99.90
32811;DHT22;65470;47.324;8.548;2023-02-13T03:15:06;6.20;99.90
32811;DHT22;65470;47.324;8.548;2023-02-13T03:17:32;6.20;99.90
32811;DHT22;65470;47.324;8.548;2023-02-13T03:20:22;6.20;99.90
32811;DHT22;65470;47.324;8.548;2023-02-13T03:23:33;6.20;99.90
32811;DHT22;65470;47.324;8.548;2023-02-13T03:28:39;6.30;99.90
32811;DHT22;65470;47.324;8.548;2023-02-13T03:31:33;6.30;99.90
32811;DHT22;65470;47.324;8.548;2023-02-13T03:34:02;6.20;99.90
32811;DHT22;65470;47.324;8.548;2023-02-13T03:41:59;6.20;99.90
32811;DHT22;65470;47.324;8.548;2023-02-13T03:44:35;6.30;99.90
32811;DHT22;65470;47.324;8.548;2023-02-13T03:47:04;6.30;99.90
32811;DHT22;65470;47.324;8.548;2023-02-13T03:49:35;6.20;99.90
32811;DHT22;65470;47.324;8.548;2023-02-13T03:55:19;6.20;99.90
32811;DHT22;65470;47.324;8.548;2023-02-13T03:58:10;6.20;99.90
32811;DHT22;65470;47.324;8.548;2023-02-13T04:00:59;6.30;99.90
32811;DHT22;65470;47.324;8.548;2023-02-13T04:03:36;6.20;99.90
32811;DHT22;65470;47.324;8.548;2023-02-13T04:06:18;6.20;99.90
32811;DHT22;65470;47.324;8.548;2023-02-13T04:08:44;6.10;99.90
32811;DHT22;65470;47.324;8.548;2023-02-13T04:13:56;6.30;99.90
32811;DHT22;65470;47.324;8.548;2023-02-13T04:16:34;6.30;99.90
32811;DHT22;65470;47.324;8.548;2023-02-13T04:19:02;6.30;99.90
32811;DHT22;65470;47.324;8.548;2023-02-13T04:21:37;6.30;99.90
32811;DHT22;65470;47.324;8.548;2023-02-13T04:24:03;6.30;99.90
32811;DHT22;65470;47.324;8.548;2023-02-13T04:26:46;6.30;99.90
32811;DHT22;65470;47.324;8.548;2023-02-13T04:29:12;6.30;99.90
32811;DHT22;65470;47.324;8.548;2023-02-13T04:31:38;6.30;99.90
32811;DHT22;65470;47.324;8.548;2023-02-13T04:34:04;6.40;99.90
32811;DHT22;65470;47.324;8.548;2023-02-13T04:36:30;6.40;99.90
32811;DHT22;65470;47.324;8.548;2023-02-13T04:38:56;6.40;99.90
32811;DHT22;65470;47.324;8.548;2023-02-13T04:41:21;6.40;99.90
32811;DHT22;65470;47.324;8.548;2023-02-13T04:43:47;6.40;99.90
32811;DHT22;65470;47.324;8.548;2023-02-13T04:46:13;6.40;99.90
32811;DHT22;65470;47.324;8.548;2023-02-13T04:48:39;6.20;99.90
32811;DHT22;65470;47.324;8.548;2023-02-13T04:51:04;6.20;99.90
32811;DHT22;65470;47.324;8.548;2023-02-13T04:53:30;6.10;99.90
32811;DHT22;65470;47.324;8.548;2023-02-13T04:55:56;6.00;99.90
32811;DHT22;65470;47.324;8.548;2023-02-13T04:58:21;5.90;99.90
32811;DHT22;65470;47.324;8.548;2023-02-13T05:00:47;5.90;99.90
32811;DHT22;65470;47.324;8.548;2023-02-13T05:03:13;5.90;99.90
32811;DHT22;65470;47.324;8.548;2023-02-13T05:05:39;5.90;99.90
32811;DHT22;65470;47.324;8.548;2023-02-13T05:08:06;5.90;99.90
32811;DHT22;65470;47.324;8.548;2023-02-13T05:10:31;5.90;99.90
32811;DHT22;65470;47.324;8.548;2023-02-13T05:12:57;5.90;99.90
32811;DHT22;65470;47.324;8.548;2023-02-13T05:15:23;5.80;99.90
32811;DHT22;65470;47.324;8.548;2023-02-13T05:17:49;5.80;99.90
32811;DHT22;65470;47.324;8.548;2023-02-13T05:20:15;5.80;99.90
32811;DHT22;65470;47.324;8.548;2023-02-13T05:25:28;5.60;99.90
32811;DHT22;65470;47.324;8.548;2023-02-13T05:27:54;5.60;99.90
32811;DHT22;65470;47.324;8.548;2023-02-13T05:30:20;5.70;99.90
32811;DHT22;65470;47.324;8.548;2023-02-13T05:32:45;5.70;99.90
32811;DHT22;65470;47.324;8.548;2023-02-13T05:35:11;5.80;99.90
32811;DHT22;65470;47.324;8.548;2023-02-13T05:37:36;5.90;99.90
32811;DHT22;65470;47.324;8.548;2023-02-13T05:40:03;5.70;99.90
32811;DHT22;65470;47.324;8.548;2023-02-13T05:42:28;5.70;99.90
32811;DHT22;65470;47.324;8.548;2023-02-13T05:44:54;5.70;99.90
32811;DHT22;65470;47.324;8.548;2023-02-13T05:47:19;5.60;99.90
32811;DHT22;65470;47.324;8.548;2023-02-13T05:49:45;5.70;99.90
32811;DHT22;65470;47.324;8.548;2023-02-13T05:52:11;5.70;99.90
32811;DHT22;65470;47.324;8.548;2023-02-13T05:54:36;5.60;99.90
32811;DHT22;65470;47.324;8.548;2023-02-13T05:57:03;5.60;99.90
32811;DHT22;65470;47.324;8.548;2023-02-13T05:59:28;5.60;99.90
32811;DHT22;65470;47.324;8.548;2023-02-13T06:01:54;5.60;99.90
32811;DHT22;65470;47.324;8.548;2023-02-13T06:04:20;5.60;99.90
32811;DHT22;65470;47.324;8.548;2023-02-13T06:06:45;5.70;99.90
32811;DHT22;65470;47.324;8.548;2023-02-13T06:09:11;5.70;99.90
32811;DHT22;65470;47.324;8.548;2023-02-13T06:11:37;5.70;99.90
32811;DHT22;65470;47.324;8.548;2023-02-13T06:14:02;5.70;99.90
32811;DHT22;65470;47.324;8.548;2023-02-13T06:16:28;5.60;99.90
32811;DHT22;65470;47.324;8.548;2023-02-13T06:18:55;5.50;99.90
32811;DHT22;65470;47.324;8.548;2023-02-13T06:21:21;5.60;99.90
32811;DHT22;65470;47.324;8.548;2023-02-13T06:23:47;5.40;99.90
32811;DHT22;65470;47.324;8.548;2023-02-13T06:26:12;5.40;99.90
32811;DHT22;65470;47.324;8.548;2023-02-13T06:28:38;5.40;99.90
32811;DHT22;65470;47.324;8.548;2023-02-13T06:31:04;5.40;99.90
32811;DHT22;65470;47.324;8.548;2023-02-13T06:33:29;5.40;99.90
32811;DHT22;65470;47.324;8.548;2023-02-13T06:35:55;5.40;99.90
32811;DHT22;65470;47.324;8.548;2023-02-13T06:38:21;5.30;99.90
32811;DHT22;65470;47.324;8.548;2023-02-13T06:40:47;5.30;99.90
32811;DHT22;65470;47.324;8.548;2023-02-13T06:43:14;5.30;99.90
32811;DHT22;65470;47.324;8.548;2023-02-13T06:45:40;5.30;99.90
32811;DHT22;65470;47.324;8.548;2023-02-13T06:48:05;5.30;99.90
32811;DHT22;65470;47.324;8.548;2023-02-13T06:50:31;5.20;99.90
32811;DHT22;65470;47.324;8.548;2023-02-13T06:52:57;5.30;99.90
32811;DHT22;65470;47.324;8.548;2023-02-13T06:55:22;5.30;99.90
32811;DHT22;65470;47.324;8.548;2023-02-13T06:57:48;5.40;99.90
32811;DHT22;65470;47.324;8.548;2023-02-13T07:00:15;5.20;99.90
32811;DHT22;65470;47.324;8.548;2023-02-13T07:02:42;5.20;99.90
32811;DHT22;65470;47.324;8.548;2023-02-13T07:05:09;5.10;99.90
32811;DHT22;65470;47.324;8.548;2023-02-13T07:07:37;5.20;99.90
32811;DHT22;65470;47.324;8.548;2023-02-13T07:10:05;5.30;99.90
32811;DHT22;65470;47.324;8.548;2023-02-13T07:12:34;5.20;99.90
32811;DHT22;65470;47.324;8.548;2023-02-13T07:15:04;5.30;99.90
32811;DHT22;65470;47.324;8.548;2023-02-13T07:17:30;5.20;99.90
32811;DHT22;65470;47.324;8.548;2023-02-13T07:19:56;5.20;99.90
32811;DHT22;65470;47.324;8.548;2023-02-13T07:22:22;5.20;99.90
32811;DHT22;65470;47.324;8.548;2023-02-13T07:24:48;5.20;99.90
32811;DHT22;65470;47.324;8.548;2023-02-13T07:27:13;5.30;99.90
32811;DHT22;65470;47.324;8.548;2023-02-13T07:29:39;5.30;99.90
32811;DHT22;65470;47.324;8.548;2023-02-13T07:32:04;5.20;99.90
32811;DHT22;65470;47.324;8.548;2023-02-13T07:34:31;5.30;99.90
32811;DHT22;65470;47.324;8.548;2023-02-13T07:36:57;5.30;99.90
32811;DHT22;65470;47.324;8.548;2023-02-13T07:39:23;5.30;99.90
32811;DHT22;65470;47.324;8.548;2023-02-13T07:41:49;5.40;99.90
32811;DHT22;65470;47.324;8.548;2023-02-13T07:44:15;5.40;99.90
32811;DHT22;65470;47.324;8.548;2023-02-13T07:46:40;5.30;99.90
32811;DHT22;65470;47.324;8.548;2023-02-13T07:49:06;5.20;99.90
32811;DHT22;65470;47.324;8.548;2023-02-13T07:51:31;5.20;99.90
32811;DHT22;65470;47.324;8.548;2023-02-13T07:53:57;5.10;99.90
32811;DHT22;65470;47.324;8.548;2023-02-13T07:56:23;5.00;99.90
32811;DHT22;65470;47.324;8.548;2023-02-13T07:58:48;5.20;99.90
32811;DHT22;65470;47.324;8.548;2023-02-13T08:01:15;4.90;99.90
32811;DHT22;65470;47.324;8.548;2023-02-13T08:03:41;4.90;99.90
32811;DHT22;65470;47.324;8.548;2023-02-13T08:06:08;4.90;99.90
32811;DHT22;65470;47.324;8.548;2023-02-13T08:08:34;4.90;99.90
32811;DHT22;65470;47.324;8.548;2023-02-13T08:11:27;5.10;99.90
32811;DHT22;65470;47.324;8.548;2023-02-13T08:14:11;5.10;99.90
32811;DHT22;65470;47.324;8.548;2023-02-13T08:16:37;5.00;99.90
32811;DHT22;65470;47.324;8.548;2023-02-13T08:19:02;5.00;99.90
32811;DHT22;65470;47.324;8.548;2023-02-13T08:21:28;5.10;99.90
32811;DHT22;65470;47.324;8.548;2023-02-13T08:23:54;5.20;99.90
32811;DHT22;65470;47.324;8.548;2023-02-13T08:26:20;5.30;99.90
32811;DHT22;65470;47.324;8.548;2023-02-13T08:28:46;5.20;99.90
32811;DHT22;65470;47.324;8.548;2023-02-13T08:31:12;5.10;99.90
32811;DHT22;65470;47.324;8.548;2023-02-13T08:33:37;5.00;99.90
32811;DHT22;65470;47.324;8.548;2023-02-13T08:36:06;5.00;99.90
32811;DHT22;65470;47.324;8.548;2023-02-13T08:38:32;4.90;99.90
32811;DHT22;65470;47.324;8.548;2023-02-13T08:40:57;4.90;99.90
32811;DHT22;65470;47.324;8.548;2023-02-13T08:43:23;5.10;99.90
32811;DHT22;65470;47.324;8.548;2023-02-13T08:45:49;5.10;99.90
32811;DHT22;65470;47.324;8.548;2023-02-13T08:48:14;5.20;99.90
32811;DHT22;65470;47.324;8.548;2023-02-13T08:50:40;5.40;99.90
32811;DHT22;65470;47.324;8.548;2023-02-13T08:53:06;5.50;99.90
32811;DHT22;65470;47.324;8.548;2023-02-13T08:55:32;5.50;99.90
32811;DHT22;65470;47.324;8.548;2023-02-13T08:58:01;5.50;99.90
32811;DHT22;65470;47.324;8.548;2023-02-13T09:00:27;5.60;99.90
32811;DHT22;65470;47.324;8.548;2023-02-13T09:02:53;5.50;99.90
32811;DHT22;65470;47.324;8.548;2023-02-13T09:05:19;5.60;99.90
32811;DHT22;65470;47.324;8.548;2023-02-13T09:07:44;5.70;99.90
32811;DHT22;65470;47.324;8.548;2023-02-13T09:10:10;5.70;99.90
32811;DHT22;65470;47.324;8.548;2023-02-13T09:12:36;5.80;99.90
32811;DHT22;65470;47.324;8.548;2023-02-13T09:15:02;5.90;99.90
32811;DHT22;65470;47.324;8.548;2023-02-13T09:17:29;6.10;99.90
32811;DHT22;65470;47.324;8.548;2023-02-13T09:19:54;6.20;99.90
32811;DHT22;65470;47.324;8.548;2023-02-13T09:22:20;6.20;99.90
32811;DHT22;65470;47.324;8.548;2023-02-13T09:24:46;6.30;99.90
32811;DHT22;65470;47.324;8.548;2023-02-13T09:27:11;6.30;99.90
32811;DHT22;65470;47.324;8.548;2023-02-13T09:29:37;6.30;99.90
32811;DHT22;65470;47.324;8.548;2023-02-13T09:32:04;6.30;99.90
32811;DHT22;65470;47.324;8.548;2023-02-13T09:34:29;6.30;99.90
32811;DHT22;65470;47.324;8.548;2023-02-13T09:36:55;6.30;99.90
32811;DHT22;65470;47.324;8.548;2023-02-13T09:39:21;6.20;99.90
32811;DHT22;65470;47.324;8.548;2023-02-13T09:41:49;6.30;99.90
32811;DHT22;65470;47.324;8.548;2023-02-13T09:44:17;6.20;99.90
32811;DHT22;65470;47.324;8.548;2023-02-13T09:47:02;6.10;99.90
32811;DHT22;65470;47.324;8.548;2023-02-13T09:49:32;5.90;99.90
32811;DHT22;65470;47.324;8.548;2023-02-13T09:52:00;5.80;99.90
32811;DHT22;65470;47.324;8.548;2023-02-13T09:54:26;5.80;99.90
32811;DHT22;65470;47.324;8.548;2023-02-13T09:57:04;6.00;99.90
32811;DHT22;65470;47.324;8.548;2023-02-13T10:02:36;6.20;99.90
32811;DHT22;65470;47.324;8.548;2023-02-13T10:10:51;6.10;99.90
32811;DHT22;65470;47.324;8.548;2023-02-13T10:13:55;6.30;99.90
32811;DHT22;65470;47.324;8.548;2023-02-13T10:16:26;6.50;99.90
32811;DHT22;65470;47.324;8.548;2023-02-13T10:21:56;6.50;99.90
32811;DHT22;65470;47.324;8.548;2023-02-13T10:24:37;6.60;99.90
32811;DHT22;65470;47.324;8.548;2023-02-13T10:27:21;6.50;99.90
32811;DHT22;65470;47.324;8.548;2023-02-13T10:29:58;6.50;99.90
32811;DHT22;65470;47.324;8.548;2023-02-13T10:35:20;6.60;99.90
32811;DHT22;65470;47.324;8.548;2023-02-13T10:37:49;6.50;99.90
32811;DHT22;65470;47.324;8.548;2023-02-13T10:40:16;6.40;99.90
32811;DHT22;65470;47.324;8.548;2023-02-13T10:43:09;6.50;99.90
32811;DHT22;65470;47.324;8.548;2023-02-13T10:45:52;6.60;99.90
32811;DHT22;65470;47.324;8.548;2023-02-13T10:51:30;6.70;99.90
32811;DHT22;65470;47.324;8.548;2023-02-13T10:54:13;6.70;99.90
32811;DHT22;65470;47.324;8.548;2023-02-13T10:57:11;6.90;99.90
32811;DHT22;65470;47.324;8.548;2023-02-13T10:59:47;6.90;99.90
32811;DHT22;65470;47.324;8.548;2023-02-13T11:02:24;6.90;99.90
32811;DHT22;65470;47.324;8.548;2023-02-13T11:05:04;6.90;99.90
32811;DHT22;65470;47.324;8.548;2023-02-13T11:07:33;6.90;99.90
32811;DHT22;65470;47.324;8.548;2023-02-13T11:10:06;6.80;99.90
32811;DHT22;65470;47.324;8.548;2023-02-13T11:12:33;6.90;99.90
32811;DHT22;65470;47.324;8.548;2023-02-13T11:15:02;7.00;99.90
32811;DHT22;65470;47.324;8.548;2023-02-13T11:17:33;7.00;99.90
32811;DHT22;65470;47.324;8.548;2023-02-13T11:20:03;7.10;99.90
32811;DHT22;65470;47.324;8.548;2023-02-13T11:22:33;7.20;99.90
32811;DHT22;65470;47.324;8.548;2023-02-13T11:25:17;7.20;99.90
32811;DHT22;65470;47.324;8.548;2023-02-13T11:27:45;7.40;99.90
32811;DHT22;65470;47.324;8.548;2023-02-13T11:33:05;7.50;99.90
32811;DHT22;65470;47.324;8.548;2023-02-13T11:35:35;7.60;99.90
32811;DHT22;65470;47.324;8.548;2023-02-13T11:41:09;7.60;99.90
32811;DHT22;65470;47.324;8.548;2023-02-13T11:43:43;7.70;99.90
32811;DHT22;65470;47.324;8.548;2023-02-13T11:46:17;7.60;99.90
32811;DHT22;65470;47.324;8.548;2023-02-13T11:48:59;7.70;99.90
32811;DHT22;65470;47.324;8.548;2023-02-13T11:51:43;7.80;99.90
32811;DHT22;65470;47.324;8.548;2023-02-13T11:54:26;8.10;99.90
32811;DHT22;65470;47.324;8.548;2023-02-13T11:56:59;8.10;99.90
32811;DHT22;65470;47.324;8.548;2023-02-13T11:59:28;8.10;99.90
32811;DHT22;65470;47.324;8.548;2023-02-13T12:02:02;8.30;99.90
32811;DHT22;65470;47.324;8.548;2023-02-13T12:04:28;8.30;99.90
32811;DHT22;65470;47.324;8.548;2023-02-13T12:06:59;8.40;99.90
32811;DHT22;65470;47.324;8.548;2023-02-13T12:09:25;8.30;99.90
32811;DHT22;65470;47.324;8.548;2023-02-13T12:11:53;8.40;99.90
32811;DHT22;65470;47.324;8.548;2023-02-13T12:14:23;8.50;99.90
32811;DHT22;65470;47.324;8.548;2023-02-13T12:19:33;8.80;99.90
32811;DHT22;65470;47.324;8.548;2023-02-13T12:27:28;9.30;99.90
32811;DHT22;65470;47.324;8.548;2023-02-13T12:36:05;11.30;99.90
32811;DHT22;65470;47.324;8.548;2023-02-13T12:39:10;12.10;99.90
32811;DHT22;65470;47.324;8.548;2023-02-13T13:01:32;18.90;67.70
32811;DHT22;65470;47.324;8.548;2023-02-13T13:20:51;20.00;58.10
32811;DHT22;65470;47.324;8.548;2023-02-13T13:28:40;21.00;57.40
32811;DHT22;65470;47.324;8.548;2023-02-13T13:31:07;21.50;56.50
32811;DHT22;65470;47.324;8.548;2023-02-13T13:33:34;21.20;56.30
32811;DHT22;65470;47.324;8.548;2023-02-13T13:39:02;20.80;56.50
32811;DHT22;65470;47.324;8.548;2023-02-13T13:41:50;21.40;56.10
32811;DHT22;65470;47.324;8.548;2023-02-13T13:45:08;21.30;55.70
32811;DHT22;65470;47.324;8.548;2023-02-13T13:47:17;21.20;55.90
32811;DHT22;65470;47.324;8.548;2023-02-13T13:49:55;20.80;56.00
32811;DHT22;65470;47.324;8.548;2023-02-13T13:52:30;21.00;55.90
32811;DHT22;65470;47.324;8.548;2023-02-13T13:54:58;20.80;55.80
32811;DHT22;65470;47.324;8.548;2023-02-13T14:05:21;20.00;58.10
32811;DHT22;65470;47.324;8.548;2023-02-13T14:07:50;20.40;57.40
32811;DHT22;65470;47.324;8.548;2023-02-13T14:25:43;16.20;65.40
32811;DHT22;65470;47.324;8.548;2023-02-13T14:28:24;15.10;68.00
32811;DHT22;65470;47.324;8.548;2023-02-13T14:30:51;14.30;73.00
32811;DHT22;65470;47.324;8.548;2023-02-13T14:33:27;14.60;73.60
32811;DHT22;65470;47.324;8.548;2023-02-13T14:36:06;15.50;72.50
32811;DHT22;65470;47.324;8.548;2023-02-13T14:38:33;16.50;68.60
32811;DHT22;65470;47.324;8.548;2023-02-13T14:41:00;16.70;67.80
32811;DHT22;65470;47.324;8.548;2023-02-13T14:48:48;17.60;65.20
32811;DHT22;65470;47.324;8.548;2023-02-13T14:51:20;17.50;64.70
32811;DHT22;65470;47.324;8.548;2023-02-13T14:53:59;17.30;65.90
32811;DHT22;65470;47.324;8.548;2023-02-13T14:56:26;17.40;65.10
32811;DHT22;65470;47.324;8.548;2023-02-13T14:59:11;17.00;65.40
32811;DHT22;65470;47.324;8.548;2023-02-13T15:04:55;14.70;70.90
32811;DHT22;65470;47.324;8.548;2023-02-13T15:07:26;13.70;74.20
32811;DHT22;65470;47.324;8.548;2023-02-13T15:10:02;12.80;76.10
32811;DHT22;65470;47.324;8.548;2023-02-13T15:12:31;12.40;77.60
32811;DHT22;65470;47.324;8.548;2023-02-13T15:14:58;11.80;80.00
32811;DHT22;65470;47.324;8.548;2023-02-13T15:17:31;11.40;81.40
32811;DHT22;65470;47.324;8.548;2023-02-13T15:22:34;10.70;84.50
32811;DHT22;65470;47.324;8.548;2023-02-13T15:25:00;10.40;88.00
32811;DHT22;65470;47.324;8.548;2023-02-13T15:27:29;10.00;88.90
32811;DHT22;65470;47.324;8.548;2023-02-13T15:30:00;9.90;89.40
32811;DHT22;65470;47.324;8.548;2023-02-13T15:32:33;9.70;91.20
32811;DHT22;65470;47.324;8.548;2023-02-13T15:34:59;9.50;92.30
32811;DHT22;65470;47.324;8.548;2023-02-13T15:37:29;9.40;94.20
32811;DHT22;65470;47.324;8.548;2023-02-13T15:39:55;9.20;96.40
32811;DHT22;65470;47.324;8.548;2023-02-13T15:42:38;9.00;99.50
32811;DHT22;65470;47.324;8.548;2023-02-13T15:45:04;8.80;99.90
32811;DHT22;65470;47.324;8.548;2023-02-13T15:47:31;8.70;99.90
32811;DHT22;65470;47.324;8.548;2023-02-13T15:49:58;8.60;99.90
32811;DHT22;65470;47.324;8.548;2023-02-13T15:52:32;8.50;99.90
32811;DHT22;65470;47.324;8.548;2023-02-13T15:55:00;8.40;99.90
32811;DHT22;65470;47.324;8.548;2023-02-13T15:57:26;8.30;99.90
32811;DHT22;65470;47.324;8.548;2023-02-13T15:59:54;8.20;99.90
32811;DHT22;65470;47.324;8.548;2023-02-13T16:02:27;8.20;99.90
32811;DHT22;65470;47.324;8.548;2023-02-13T16:04:54;8.10;99.90
32811;DHT22;65470;47.324;8.548;2023-02-13T16:07:20;7.90;99.90
32811;DHT22;65470;47.324;8.548;2023-02-13T16:09:46;7.80;99.90
32811;DHT22;65470;47.324;8.548;2023-02-13T16:12:26;7.70;99.90
32811;DHT22;65470;47.324;8.548;2023-02-13T16:14:54;7.60;99.90
32811;DHT22;65470;47.324;8.548;2023-02-13T16:17:36;7.60;99.90
32811;DHT22;65470;47.324;8.548;2023-02-13T16:20:04;7.50;99.90
32811;DHT22;65470;47.324;8.548;2023-02-13T16:25:14;7.40;99.90
32811;DHT22;65470;47.324;8.548;2023-02-13T16:28:20;7.30;99.90
32811;DHT22;65470;47.324;8.548;2023-02-13T16:33:32;7.00;99.90
32811;DHT22;65470;47.324;8.548;2023-02-13T16:38:42;6.90;99.90
32811;DHT22;65470;47.324;8.548;2023-02-13T16:41:28;6.80;99.90
32811;DHT22;65470;47.324;8.548;2023-02-13T16:51:40;6.50;99.90
32811;DHT22;65470;47.324;8.548;2023-02-13T16:56:50;6.40;99.90
32811;DHT22;65470;47.324;8.548;2023-02-13T16:59:33;6.30;99.90
32811;DHT22;65470;47.324;8.548;2023-02-13T17:02:15;6.30;99.90
32811;DHT22;65470;47.324;8.548;2023-02-13T17:05:12;6.20;99.90
32811;DHT22;65470;47.324;8.548;2023-02-13T17:07:30;6.20;99.90
32811;DHT22;65470;47.324;8.548;2023-02-13T17:10:07;6.10;99.90
32811;DHT22;65470;47.324;8.548;2023-02-13T17:12:36;6.00;99.90
32811;DHT22;65470;47.324;8.548;2023-02-13T17:15:03;5.90;99.90
32811;DHT22;65470;47.324;8.548;2023-02-13T17:17:30;5.80;99.90
32811;DHT22;65470;47.324;8.548;2023-02-13T17:19:59;5.70;99.90
32811;DHT22;65470;47.324;8.548;2023-02-13T17:22:38;5.60;99.90
32811;DHT22;65470;47.324;8.548;2023-02-13T17:25:16;5.50;99.90
32811;DHT22;65470;47.324;8.548;2023-02-13T17:27:42;5.50;99.90
32811;DHT22;65470;47.324;8.548;2023-02-13T17:30:14;5.40;99.90
32811;DHT22;65470;47.324;8.548;2023-02-13T17:32:40;5.40;99.90
32811;DHT22;65470;47.324;8.548;2023-02-13T17:35:05;5.40;99.90
32811;DHT22;65470;47.324;8.548;2023-02-13T17:37:31;5.30;99.90
32811;DHT22;65470;47.324;8.548;2023-02-13T17:39:57;5.20;99.90
32811;DHT22;65470;47.324;8.548;2023-02-13T17:42:24;5.20;99.90
32811;DHT22;65470;47.324;8.548;2023-02-13T17:44:51;5.20;99.90
32811;DHT22;65470;47.324;8.548;2023-02-13T17:47:18;5.20;99.90
32811;DHT22;65470;47.324;8.548;2023-02-13T17:49:44;5.10;99.90
32811;DHT22;65470;47.324;8.548;2023-02-13T17:52:18;5.10;99.90
32811;DHT22;65470;47.324;8.548;2023-02-13T17:54:45;5.10;99.90
32811;DHT22;65470;47.324;8.548;2023-02-13T17:57:12;5.10;99.90
32811;DHT22;65470;47.324;8.548;2023-02-13T17:59:38;5.10;99.90
32811;DHT22;65470;47.324;8.548;2023-02-13T18:02:19;5.00;99.90
32811;DHT22;65470;47.324;8.548;2023-02-13T18:04:46;5.00;99.90
32811;DHT22;65470;47.324;8.548;2023-02-13T18:07:13;4.90;99.90
32811;DHT22;65470;47.324;8.548;2023-02-13T18:09:40;4.90;99.90
32811;DHT22;65470;47.324;8.548;2023-02-13T18:12:10;4.80;99.90
32811;DHT22;65470;47.324;8.548;2023-02-13T18:14:36;4.80;99.90
32811;DHT22;65470;47.324;8.548;2023-02-13T18:17:02;4.80;99.90
32811;DHT22;65470;47.324;8.548;2023-02-13T18:19:28;4.80;99.90
32811;DHT22;65470;47.324;8.548;2023-02-13T18:21:53;4.80;99.90
32811;DHT22;65470;47.324;8.548;2023-02-13T18:24:19;4.70;99.90
32811;DHT22;65470;47.324;8.548;2023-02-13T18:26:45;4.70;99.90
32811;DHT22;65470;47.324;8.548;2023-02-13T18:29:10;4.70;99.90
32811;DHT22;65470;47.324;8.548;2023-02-13T18:31:36;4.60;99.90
32811;DHT22;65470;47.324;8.548;2023-02-13T18:34:01;4.60;99.90
32811;DHT22;65470;47.324;8.548;2023-02-13T18:36:27;4.50;99.90
32811;DHT22;65470;47.324;8.548;2023-02-13T18:38:53;4.50;99.90
32811;DHT22;65470;47.324;8.548;2023-02-13T18:41:19;4.40;99.90
32811;DHT22;65470;47.324;8.548;2023-02-13T18:43:44;4.40;99.90
32811;DHT22;65470;47.324;8.548;2023-02-13T18:46:10;4.40;99.90
32811;DHT22;65470;47.324;8.548;2023-02-13T18:48:36;4.40;99.90
32811;DHT22;65470;47.324;8.548;2023-02-13T18:51:01;4.40;99.90
32811;DHT22;65470;47.324;8.548;2023-02-13T18:53:28;4.40;99.90
32811;DHT22;65470;47.324;8.548;2023-02-13T18:56:04;4.40;99.90
32811;DHT22;65470;47.324;8.548;2023-02-13T18:58:31;4.30;99.90